createdAt,value
2018-03-21T00:00:02.480Z,4.7
2018-03-21T00:15:02.717Z,4.7
2018-03-21T00:30:03.175Z,4.6
2018-03-21T00:45:02.410Z,4.6
2018-03-21T01:00:02.691Z,4.6
2018-03-21T01:15:02.911Z,4.6
2018-03-21T01:30:02.293Z,4.6
2018-03-21T01:45:02.629Z,4.5
2018-03-21T02:00:02.893Z,4.5
2018-03-21T02:15:03.161Z,4.4
2018-03-21T02:30:02.892Z,4.4
2018-03-21T02:45:03.150Z,4.4
2018-03-21T03:00:02.485Z,4.4
2018-03-21T03:15:02.717Z,4.4
2018-03-21T03:30:03.017Z,4.4
2018-03-21T03:45:02.283Z,4.3
2018-03-21T04:00:02.604Z,4.3
2018-03-21T04:15:02.869Z,4.3
2018-03-21T04:30:02.203Z,4.2
2018-03-21T04:45:02.564Z,4.2
2018-03-21T05:00:02.793Z,4.2
2018-03-21T05:15:03.066Z,4.2
2018-03-21T05:30:02.460Z,4.1
2018-03-21T05:45:02.784Z,4.1
2018-03-21T06:00:03.012Z,4.1
2018-03-21T06:15:02.299Z,4.1
2018-03-21T06:30:02.770Z,4.1
2018-03-21T06:45:03.078Z,4
2018-03-21T07:00:02.478Z,4
2018-03-21T07:15:02.727Z,4
2018-03-21T07:30:03.019Z,4
2018-03-21T07:45:02.406Z,4
2018-03-21T08:00:02.616Z,4.1
2018-03-21T08:15:02.953Z,4.1
2018-03-21T08:30:02.309Z,4.1
2018-03-21T08:45:02.583Z,4.1
2018-03-21T09:00:02.874Z,4.1
2018-03-21T09:15:03.181Z,4.1
2018-03-21T09:30:02.529Z,4.2
2018-03-21T09:45:03.298Z,4.2
2018-03-21T10:00:02.607Z,4.2
2018-03-21T10:15:02.825Z,4.3
2018-03-21T10:30:03.153Z,4.4
2018-03-21T10:45:02.497Z,4.4
2018-03-21T11:00:02.747Z,4.5
2018-03-21T11:15:02.995Z,4.5
2018-03-21T11:30:02.337Z,4.6
2018-03-21T11:45:02.614Z,4.6
2018-03-21T12:00:02.929Z,4.6
2018-03-21T12:15:03.205Z,4.7
2018-03-21T12:30:02.584Z,4.8
2018-03-21T12:45:02.808Z,4.8
2018-03-21T13:00:03.002Z,4.8
2018-03-21T13:15:02.267Z,4.8
2018-03-21T13:30:02.652Z,4.8
2018-03-21T13:45:02.932Z,4.9
2018-03-21T14:00:03.214Z,4.9
2018-03-21T14:15:02.503Z,4.9
2018-03-21T14:30:02.836Z,4.9
2018-03-21T14:45:03.085Z,5
2018-03-21T15:00:02.394Z,5
2018-03-21T15:15:02.664Z,5.1
2018-03-21T15:30:03.003Z,5.1
2018-03-21T15:45:02.271Z,5.1
2018-03-21T16:00:02.523Z,5.1
2018-03-21T16:15:02.782Z,5.1
2018-03-21T16:30:03.123Z,5.1
2018-03-21T16:45:02.369Z,5.1
2018-03-21T17:00:02.629Z,5.1
2018-03-21T17:15:02.857Z,5.1
2018-03-21T17:30:02.211Z,5.1
2018-03-21T17:45:02.428Z,5.1
2018-03-21T18:00:02.682Z,5.1
2018-03-21T18:15:02.913Z,5.1
2018-03-21T18:30:02.287Z,5.1
2018-03-21T18:45:02.626Z,5.1
2018-03-21T19:00:02.824Z,5.1
2018-03-21T19:15:03.080Z,5.1
2018-03-21T19:30:02.433Z,5.1
2018-03-21T19:45:02.672Z,5.1
2018-03-21T20:00:02.905Z,5.1
2018-03-21T20:15:04.071Z,5.1
2018-03-21T20:30:02.387Z,5
2018-03-21T20:45:02.699Z,5
2018-03-21T21:00:02.946Z,5
2018-03-21T21:15:03.209Z,5
2018-03-21T21:30:02.586Z,4.9
2018-03-21T21:45:02.792Z,4.9
2018-03-21T22:00:03.107Z,4.9
2018-03-21T22:15:02.407Z,4.9
2018-03-21T22:30:02.700Z,4.9
2018-03-21T22:45:02.909Z,4.9
2018-03-21T23:00:04.042Z,4.9
2018-03-21T23:15:02.327Z,4.8
2018-03-21T23:30:02.703Z,4.8
2018-03-21T23:45:02.934Z,4.8
